createdAt,value
2022-10-20T00:02:33.105Z,76.39
2022-10-20T00:05:19.433Z,77.28
2022-10-20T00:08:05.309Z,77.84
2022-10-20T00:10:58.216Z,76.61
2022-10-20T00:13:45.079Z,76.42
2022-10-20T00:16:32.375Z,75.64
2022-10-20T00:19:17.997Z,76.05
2022-10-20T00:22:04.669Z,78.87
2022-10-20T00:24:51.706Z,83.89
2022-10-20T00:27:37.951Z,81.32
2022-10-20T00:30:25.087Z,80.14
2022-10-20T00:33:12.306Z,82.66
2022-10-20T00:35:59.402Z,82.97
2022-10-20T00:38:45.437Z,82.42
2022-10-20T00:41:33.644Z,88.28
2022-10-20T00:44:40.573Z,85.82
2022-10-20T00:47:32.563Z,85.19
2022-10-20T00:50:21.197Z,89.07
2022-10-20T00:53:07.045Z,100.00
2022-10-20T00:55:54.154Z,97.50
2022-10-20T00:58:40.047Z,94.25
2022-10-20T01:01:26.366Z,96.42
2022-10-20T01:04:13.664Z,93.90
2022-10-20T01:06:59.809Z,95.38
2022-10-20T01:09:46.862Z,96.26
2022-10-20T01:12:36.070Z,91.00
2022-10-20T01:15:27.355Z,91.52
2022-10-20T01:18:26.255Z,88.91
2022-10-20T01:21:31.011Z,87.09
2022-10-20T01:24:39.018Z,86.42
2022-10-20T01:27:35.939Z,85.04
2022-10-20T01:30:22.807Z,87.25
2022-10-20T01:33:11.880Z,84.17
2022-10-20T01:36:17.151Z,83.18
2022-10-20T01:39:08.154Z,82.96
2022-10-20T01:41:56.684Z,87.11
2022-10-20T01:44:44.051Z,85.75
2022-10-20T01:47:30.366Z,87.61
2022-10-20T01:50:17.651Z,84.63
2022-10-20T01:53:04.682Z,86.58
2022-10-20T01:55:52.862Z,89.39
2022-10-20T01:58:48.017Z,86.29
2022-10-20T02:01:41.683Z,90.92
2022-10-20T02:04:30.685Z,90.84
2022-10-20T02:07:18.076Z,89.22
2022-10-20T02:10:15.726Z,88.54
2022-10-20T02:13:03.330Z,89.31
2022-10-20T02:15:54.021Z,88.01
2022-10-20T02:18:40.944Z,85.72
2022-10-20T02:21:27.725Z,88.29
2022-10-20T02:24:13.865Z,85.11
2022-10-20T02:27:01.374Z,92.56
2022-10-20T02:29:49.052Z,90.24
2022-10-20T02:32:36.326Z,88.08
2022-10-20T02:35:23.787Z,88.74
2022-10-20T02:38:10.985Z,88.88
2022-10-20T02:40:56.757Z,86.81
2022-10-20T02:43:43.609Z,87.27
2022-10-20T02:46:30.413Z,86.17
2022-10-20T02:49:16.944Z,86.72
2022-10-20T02:52:03.083Z,88.94
2022-10-20T02:54:55.542Z,89.01
2022-10-20T02:57:41.363Z,87.77
2022-10-20T03:00:31.121Z,91.25
2022-10-20T03:03:18.713Z,86.81
2022-10-20T03:06:11.042Z,89.22
2022-10-20T03:08:57.982Z,87.70
2022-10-20T03:11:44.209Z,86.86
2022-10-20T03:14:30.169Z,87.52
2022-10-20T03:17:17.960Z,88.90
2022-10-20T03:20:05.583Z,87.25
2022-10-20T03:22:53.410Z,86.78
2022-10-20T03:25:40.601Z,93.48
2022-10-20T03:28:26.912Z,88.93
2022-10-20T03:31:14.553Z,89.51
2022-10-20T03:34:00.913Z,88.08
2022-10-20T03:36:48.976Z,91.56
2022-10-20T03:39:40.516Z,88.29
2022-10-20T03:42:31.784Z,89.64
2022-10-20T03:45:19.221Z,95.22
2022-10-20T03:48:08.546Z,92.63
2022-10-20T03:51:03.003Z,90.00
2022-10-20T03:53:52.858Z,97.55
2022-10-20T03:56:40.610Z,95.51
2022-10-20T03:59:29.592Z,99.67
2022-10-20T04:02:33.866Z,93.24
2022-10-20T04:05:22.152Z,92.05
2022-10-20T04:08:12.863Z,89.56
2022-10-20T04:11:00.067Z,88.82
2022-10-20T04:13:46.545Z,89.99
2022-10-20T04:16:33.342Z,87.30
2022-10-20T04:19:19.986Z,85.64
2022-10-20T04:22:08.652Z,86.25
2022-10-20T04:24:59.166Z,83.68
2022-10-20T04:27:47.614Z,83.59
2022-10-20T04:30:34.070Z,86.04
2022-10-20T04:33:28.777Z,86.80
2022-10-20T04:36:15.488Z,87.32
2022-10-20T04:39:06.633Z,87.11
2022-10-20T04:41:56.921Z,90.04
2022-10-20T04:44:44.142Z,92.79
2022-10-20T04:47:34.016Z,92.48
2022-10-20T04:50:22.079Z,97.01
2022-10-20T04:53:25.894Z,97.44
2022-10-20T04:56:19.859Z,96.75
2022-10-20T04:59:09.662Z,92.04
2022-10-20T05:02:10.470Z,90.25
2022-10-20T05:04:57.416Z,91.48
2022-10-20T05:07:45.713Z,93.15
2022-10-20T05:10:39.983Z,88.05
2022-10-20T05:13:27.852Z,86.58
2022-10-20T05:16:17.608Z,87.56
2022-10-20T05:19:06.677Z,84.73
2022-10-20T05:21:57.479Z,85.79
2022-10-20T05:24:44.608Z,85.21
2022-10-20T05:27:31.696Z,82.29
2022-10-20T05:30:18.363Z,82.29
2022-10-20T05:33:06.041Z,83.21
2022-10-20T05:35:54.766Z,85.20
2022-10-20T05:38:41.262Z,88.06
2022-10-20T05:41:33.497Z,87.31
2022-10-20T05:44:24.054Z,88.55
2022-10-20T05:47:14.676Z,90.58
2022-10-20T05:50:03.509Z,90.16
2022-10-20T05:52:53.229Z,91.05
2022-10-20T05:55:40.631Z,88.48
2022-10-20T05:58:38.518Z,92.56
2022-10-20T06:01:27.028Z,91.72
2022-10-20T06:04:25.503Z,89.31
2022-10-20T06:07:18.591Z,90.27
2022-10-20T06:10:07.740Z,90.74
2022-10-20T06:12:55.027Z,89.64
2022-10-20T06:15:49.371Z,94.31
2022-10-20T06:18:40.410Z,100.00
2022-10-20T06:21:29.448Z,99.98
2022-10-20T06:24:18.772Z,95.12
2022-10-20T06:27:05.155Z,94.25
2022-10-20T06:29:54.860Z,96.76
2022-10-20T06:32:44.854Z,92.90
2022-10-20T06:35:33.574Z,93.66
2022-10-20T06:38:19.768Z,97.11
2022-10-20T06:41:08.845Z,95.31
2022-10-20T06:43:59.374Z,91.78
2022-10-20T06:46:46.028Z,92.89
2022-10-20T06:49:39.566Z,93.54
2022-10-20T06:52:26.930Z,92.61
2022-10-20T06:55:15.305Z,94.39
2022-10-20T06:58:03.055Z,94.90
2022-10-20T07:01:11.077Z,94.94
2022-10-20T07:04:00.697Z,98.23
2022-10-20T07:06:48.465Z,99.76
2022-10-20T07:09:35.224Z,98.00
2022-10-20T07:12:21.560Z,96.72
2022-10-20T07:15:09.453Z,96.97
2022-10-20T07:17:57.003Z,97.01
2022-10-20T07:20:43.704Z,94.35
2022-10-20T07:23:32.611Z,92.88
2022-10-20T07:26:24.797Z,92.34
2022-10-20T07:29:11.931Z,89.76
2022-10-20T07:32:01.424Z,89.69
2022-10-20T07:34:51.228Z,85.56
2022-10-20T07:37:38.630Z,86.94
2022-10-20T07:40:31.731Z,84.47
2022-10-20T07:43:20.208Z,85.15
2022-10-20T07:46:08.552Z,84.72
2022-10-20T07:52:07.730Z,80.82
2022-10-20T07:55:01.615Z,77.99
2022-10-20T07:58:00.709Z,80.98
2022-10-20T08:00:53.986Z,79.79
2022-10-20T08:03:42.531Z,76.10
2022-10-20T08:06:29.640Z,75.73
2022-10-20T08:09:16.257Z,75.60
2022-10-20T08:12:04.641Z,76.28
2022-10-20T08:14:52.144Z,75.72
2022-10-20T08:17:40.537Z,74.38
2022-10-20T08:20:30.309Z,75.53
2022-10-20T08:23:18.336Z,75.37
2022-10-20T08:26:09.052Z,76.45
2022-10-20T08:28:56.971Z,71.92
2022-10-20T08:31:46.403Z,73.06
2022-10-20T08:34:32.879Z,75.95
2022-10-20T08:37:19.723Z,73.09
2022-10-20T08:43:17.671Z,70.29
2022-10-20T08:46:16.533Z,70.59
2022-10-20T08:49:06.294Z,72.37
2022-10-20T08:51:55.006Z,73.93
2022-10-20T08:54:42.285Z,72.20
2022-10-20T08:57:34.563Z,71.48
2022-10-20T09:00:25.638Z,71.82
2022-10-20T09:03:27.734Z,71.10
2022-10-20T09:06:16.508Z,67.91
2022-10-20T09:09:04.014Z,70.60
2022-10-20T09:11:51.546Z,67.62
2022-10-20T09:14:38.132Z,63.56
2022-10-20T09:17:26.002Z,60.72
2022-10-20T09:20:23.936Z,60.88
2022-10-20T09:23:41.488Z,60.88
2022-10-20T09:29:48.630Z,59.26
2022-10-20T09:32:52.908Z,58.36
2022-10-20T09:35:41.416Z,57.08
2022-10-20T09:38:30.429Z,56.72
2022-10-20T09:41:22.440Z,55.93
2022-10-20T09:44:15.134Z,54.96
2022-10-20T09:47:02.900Z,55.01
2022-10-20T09:49:50.515Z,57.56
2022-10-20T09:52:47.318Z,59.33
2022-10-20T09:55:41.477Z,57.09
2022-10-20T09:58:29.990Z,54.28
2022-10-20T10:04:12.387Z,48.93
2022-10-20T10:06:59.060Z,45.39
2022-10-20T10:09:50.870Z,46.17
2022-10-20T10:12:40.149Z,47.55
2022-10-20T10:15:31.321Z,47.57
2022-10-20T10:18:21.859Z,46.02
2022-10-20T10:21:09.904Z,45.35
2022-10-20T10:24:06.689Z,47.59
2022-10-20T10:26:55.721Z,47.12
2022-10-20T10:29:43.804Z,47.66
2022-10-20T10:32:30.905Z,46.06
2022-10-20T10:35:29.339Z,44.15
2022-10-20T10:38:18.040Z,44.52
2022-10-20T10:41:11.566Z,48.37
2022-10-20T10:44:08.074Z,49.03
2022-10-20T10:46:54.896Z,47.41
2022-10-20T10:49:42.050Z,50.25
2022-10-20T10:53:01.902Z,48.24
2022-10-20T10:55:58.351Z,49.22
2022-10-20T10:58:59.654Z,50.64
2022-10-20T11:01:57.849Z,49.94
2022-10-20T11:05:00.693Z,49.30
2022-10-20T11:07:51.959Z,48.19
2022-10-20T11:10:44.585Z,47.36
2022-10-20T11:13:38.054Z,49.40
2022-10-20T11:16:27.342Z,47.97
2022-10-20T11:19:14.099Z,47.23
2022-10-20T11:22:09.433Z,49.24
2022-10-20T11:25:23.671Z,49.13
2022-10-20T11:28:21.754Z,46.58
2022-10-20T11:31:10.142Z,46.77
2022-10-20T11:34:19.767Z,48.08
2022-10-20T11:37:08.186Z,50.13
2022-10-20T11:40:15.722Z,47.11
2022-10-20T11:43:32.475Z,47.72
2022-10-20T11:46:27.605Z,46.43
2022-10-20T11:49:15.220Z,45.88
2022-10-20T11:52:07.506Z,48.15
2022-10-20T11:54:58.338Z,49.88
2022-10-20T11:58:08.820Z,49.03
2022-10-20T12:00:59.566Z,51.44
2022-10-20T12:03:48.473Z,48.93
2022-10-20T12:06:40.566Z,49.16
2022-10-20T12:09:45.688Z,48.46
2022-10-20T12:12:36.046Z,46.04
2022-10-20T12:15:27.896Z,48.22
2022-10-20T12:18:35.545Z,47.49
2022-10-20T12:21:43.686Z,48.74
2022-10-20T12:24:37.635Z,48.78
2022-10-20T12:27:27.998Z,47.69
2022-10-20T12:30:17.973Z,46.26
2022-10-20T12:33:18.533Z,48.62
2022-10-20T12:36:17.264Z,47.47
2022-10-20T12:42:05.400Z,47.22
2022-10-20T12:45:02.725Z,46.37
2022-10-20T12:47:51.498Z,47.41
2022-10-20T12:50:40.859Z,44.87
2022-10-20T12:53:32.771Z,47.01
2022-10-20T12:56:21.501Z,46.15
2022-10-20T12:59:34.421Z,45.82
2022-10-20T13:02:24.934Z,46.19
2022-10-20T13:05:14.664Z,43.40
2022-10-20T13:08:06.502Z,44.99
2022-10-20T13:11:26.771Z,45.35
2022-10-20T13:14:37.133Z,45.95
2022-10-20T13:17:27.816Z,45.22
2022-10-20T13:20:36.734Z,44.79
2022-10-20T13:23:33.585Z,43.25
2022-10-20T13:26:22.539Z,42.29
2022-10-20T13:29:14.782Z,41.52
2022-10-20T13:35:08.763Z,39.10
2022-10-20T13:38:03.490Z,37.38
2022-10-20T13:44:09.846Z,36.52
2022-10-20T13:47:18.421Z,36.95
2022-10-20T13:50:12.530Z,34.96
2022-10-20T13:53:05.720Z,34.45
2022-10-20T13:55:58.937Z,34.24
2022-10-20T13:59:08.555Z,33.03
2022-10-20T14:02:04.572Z,33.52
2022-10-20T14:05:09.807Z,32.20
2022-10-20T14:08:03.259Z,32.66
2022-10-20T14:10:55.559Z,34.29
2022-10-20T14:13:52.246Z,34.25
2022-10-20T14:16:47.973Z,34.32
2022-10-20T14:19:35.758Z,37.27
2022-10-20T14:22:23.781Z,36.00
2022-10-20T14:28:11.701Z,34.12
2022-10-20T14:30:57.574Z,35.29
2022-10-20T14:33:48.681Z,34.38
2022-10-20T14:36:35.557Z,34.13
2022-10-20T14:39:32.595Z,32.14
2022-10-20T14:42:22.061Z,32.83
2022-10-20T14:45:17.421Z,33.22
2022-10-20T14:48:13.535Z,33.06
2022-10-20T14:51:25.522Z,33.18
2022-10-20T14:54:17.377Z,32.47
2022-10-20T14:57:10.450Z,31.83
2022-10-20T15:00:21.718Z,31.40
2022-10-20T15:03:14.667Z,31.83
2022-10-20T15:06:04.867Z,32.01
2022-10-20T15:11:49.809Z,33.54
2022-10-20T15:20:40.577Z,36.51
2022-10-20T15:26:24.574Z,38.73
2022-10-20T15:29:12.681Z,40.49
2022-10-20T15:32:06.704Z,41.41
2022-10-20T15:35:00.549Z,42.42
2022-10-20T15:37:54.572Z,43.30
2022-10-20T15:40:46.762Z,44.24
2022-10-20T15:43:38.951Z,45.10
2022-10-20T15:46:29.987Z,45.59
2022-10-20T15:49:17.417Z,46.10
2022-10-20T15:52:09.489Z,46.79
2022-10-20T15:54:58.541Z,47.86
2022-10-20T15:57:48.552Z,48.22
2022-10-20T16:00:38.711Z,49.07
2022-10-20T16:03:36.528Z,50.27
2022-10-20T16:06:25.061Z,50.67
2022-10-20T16:09:16.149Z,51.99
2022-10-20T16:12:11.621Z,53.13
2022-10-20T16:15:02.554Z,54.95
2022-10-20T16:18:03.538Z,55.19
2022-10-20T16:21:00.562Z,55.99
2022-10-20T16:23:54.250Z,57.22
2022-10-20T16:26:49.997Z,58.13
2022-10-20T16:29:40.511Z,59.14
2022-10-20T16:35:42.555Z,60.33
2022-10-20T16:38:40.106Z,61.77
2022-10-20T16:41:28.247Z,62.29
2022-10-20T16:44:30.881Z,61.85
2022-10-20T16:47:28.593Z,62.15
2022-10-20T16:50:23.570Z,63.10
2022-10-20T16:53:27.573Z,64.53
2022-10-20T17:02:07.797Z,66.02
2022-10-20T17:04:59.508Z,66.35
2022-10-20T17:07:47.937Z,66.58
2022-10-20T17:10:46.653Z,66.82
2022-10-20T17:13:35.822Z,66.50
2022-10-20T17:19:44.500Z,67.60
2022-10-20T17:22:41.528Z,67.74
2022-10-20T17:25:45.731Z,68.18
2022-10-20T17:28:42.561Z,69.39
2022-10-20T17:31:42.765Z,68.50
2022-10-20T17:34:52.429Z,69.58
2022-10-20T17:37:42.566Z,71.26
2022-10-20T17:40:39.531Z,70.46
2022-10-20T17:43:54.853Z,72.47
2022-10-20T17:46:44.594Z,70.72
2022-10-20T17:52:34.087Z,69.51
2022-10-20T17:55:28.557Z,71.72
2022-10-20T17:58:16.519Z,72.51
2022-10-20T18:01:19.612Z,73.85
2022-10-20T18:04:13.755Z,72.86
2022-10-20T18:07:10.769Z,72.85
2022-10-20T18:10:04.555Z,73.24
2022-10-20T18:15:46.604Z,74.37
2022-10-20T18:18:35.539Z,74.94
2022-10-20T18:21:22.757Z,77.00
2022-10-20T18:24:21.586Z,77.06
2022-10-20T18:30:11.485Z,76.68
2022-10-20T18:36:08.280Z,76.81
2022-10-20T18:42:12.548Z,75.46
2022-10-20T18:45:09.398Z,76.31
2022-10-20T18:48:00.122Z,76.63
2022-10-20T18:51:04.601Z,78.69
2022-10-20T18:54:07.518Z,76.77
2022-10-20T18:57:09.547Z,78.14
2022-10-20T19:00:09.858Z,78.33
2022-10-20T19:03:02.499Z,78.22
2022-10-20T19:06:05.737Z,79.06
2022-10-20T19:09:00.539Z,76.31
2022-10-20T19:11:57.542Z,74.47
2022-10-20T19:14:45.512Z,73.83
2022-10-20T19:20:38.501Z,78.05
2022-10-20T19:23:37.011Z,77.12
2022-10-20T19:26:35.238Z,76.69
2022-10-20T19:29:36.671Z,77.29
2022-10-20T19:32:25.461Z,78.72
2022-10-20T19:38:07.844Z,76.96
2022-10-20T19:43:54.652Z,77.85
2022-10-20T19:52:59.003Z,79.08
2022-10-20T19:55:53.600Z,79.85
2022-10-20T19:58:48.473Z,79.74
2022-10-20T20:01:38.500Z,79.39
2022-10-20T20:04:29.991Z,77.05
2022-10-20T20:07:26.759Z,76.88
2022-10-20T20:10:13.842Z,76.27
2022-10-20T20:13:08.526Z,77.62
2022-10-20T20:16:04.872Z,77.76
2022-10-20T20:18:54.729Z,77.04
2022-10-20T20:21:43.825Z,79.42
2022-10-20T20:24:36.596Z,79.75
2022-10-20T20:27:25.726Z,79.51
2022-10-20T20:30:12.197Z,80.23
2022-10-20T20:32:59.770Z,77.61
2022-10-20T20:35:50.566Z,79.54
2022-10-20T20:38:44.561Z,78.77
2022-10-20T20:44:31.921Z,82.71
2022-10-20T20:47:22.531Z,79.13
2022-10-20T20:50:16.454Z,79.54
2022-10-20T20:53:12.538Z,80.47
2022-10-20T20:56:04.962Z,79.62
2022-10-20T20:58:55.102Z,80.11
2022-10-20T21:01:45.178Z,78.43
2022-10-20T21:04:34.002Z,76.02
2022-10-20T21:07:20.317Z,75.56
2022-10-20T21:10:14.321Z,76.73
2022-10-20T21:16:10.397Z,77.64
2022-10-20T21:18:58.669Z,77.48
2022-10-20T21:21:50.587Z,78.39
2022-10-20T21:24:37.513Z,76.18
2022-10-20T21:27:23.917Z,78.15
2022-10-20T21:30:13.437Z,79.74
2022-10-20T21:33:01.187Z,84.01
2022-10-20T21:35:53.287Z,90.97
2022-10-20T21:38:44.574Z,90.05
2022-10-20T21:41:32.176Z,90.68
2022-10-20T21:44:18.798Z,95.19
2022-10-20T21:47:06.620Z,94.66
2022-10-20T21:49:54.551Z,95.73
2022-10-20T21:52:40.906Z,91.53
2022-10-20T21:55:27.161Z,88.32
2022-10-20T21:58:13.737Z,89.61
2022-10-20T22:01:00.212Z,91.38
2022-10-20T22:03:48.729Z,87.62
2022-10-20T22:06:37.030Z,87.57
2022-10-20T22:09:32.847Z,90.61
2022-10-20T22:12:20.371Z,92.21
2022-10-20T22:15:08.866Z,91.25
2022-10-20T22:17:54.887Z,94.77
2022-10-20T22:20:41.687Z,94.71
2022-10-20T22:23:28.695Z,96.79
2022-10-20T22:26:14.944Z,96.91
2022-10-20T22:29:01.159Z,93.67
2022-10-20T22:31:47.594Z,95.53
2022-10-20T22:34:33.274Z,94.17
2022-10-20T22:37:21.150Z,94.63
2022-10-20T22:40:07.614Z,95.52
2022-10-20T22:42:53.910Z,96.29
2022-10-20T22:45:40.686Z,97.88
2022-10-20T22:48:26.847Z,99.48
2022-10-20T22:51:14.001Z,99.34
2022-10-20T22:54:00.355Z,100.00
2022-10-20T22:56:46.456Z,96.60
2022-10-20T22:59:34.863Z,94.79
2022-10-20T23:02:21.741Z,87.89
2022-10-20T23:05:14.634Z,83.57
2022-10-20T23:08:01.603Z,85.89
2022-10-20T23:10:58.033Z,85.60
2022-10-20T23:13:44.159Z,85.12
2022-10-20T23:16:30.744Z,85.17
2022-10-20T23:19:16.874Z,85.42
2022-10-20T23:22:06.643Z,85.35
2022-10-20T23:24:52.817Z,86.32
2022-10-20T23:27:39.658Z,85.20
2022-10-20T23:30:26.236Z,84.41
2022-10-20T23:33:13.756Z,83.55
2022-10-20T23:35:59.610Z,86.31
2022-10-20T23:38:50.073Z,87.94
2022-10-20T23:41:41.338Z,86.80
2022-10-20T23:44:27.844Z,86.67
2022-10-20T23:47:14.821Z,86.17
2022-10-20T23:50:04.745Z,86.61
2022-10-20T23:52:51.976Z,87.17
2022-10-20T23:55:38.780Z,90.21
2022-10-20T23:58:26.156Z,87.69
